createdAt,value
2022-10-03T00:00:01.649Z,11.70
2022-10-03T00:02:36.830Z,11.60
2022-10-03T00:05:37.165Z,11.70
2022-10-03T00:08:57.908Z,11.70
2022-10-03T00:11:45.435Z,11.70
2022-10-03T00:14:24.073Z,11.70
2022-10-03T00:17:14.029Z,11.60
2022-10-03T00:19:52.630Z,11.60
2022-10-03T00:22:58.381Z,11.50
2022-10-03T00:25:57.232Z,11.50
2022-10-03T00:28:39.238Z,11.50
2022-10-03T00:31:33.419Z,11.50
2022-10-03T00:34:08.732Z,11.50
2022-10-03T00:37:05.404Z,11.50
2022-10-03T00:40:06.808Z,11.50
2022-10-03T00:42:45.416Z,11.50
2022-10-03T00:45:51.775Z,11.40
2022-10-03T00:48:30.604Z,11.30
2022-10-03T00:51:31.802Z,11.30
2022-10-03T00:54:35.905Z,11.30
2022-10-03T00:57:39.385Z,11.30
2022-10-03T01:00:08.886Z,11.30
2022-10-03T01:02:49.629Z,11.20
2022-10-03T01:05:31.679Z,11.30
2022-10-03T01:08:19.239Z,11.20
2022-10-03T01:10:51.707Z,11.20
2022-10-03T01:13:48.162Z,11.20
2022-10-03T01:16:26.940Z,11.20
2022-10-03T01:19:12.572Z,11.10
2022-10-03T01:22:05.115Z,11.10
2022-10-03T01:24:54.406Z,11.00
2022-10-03T01:28:19.946Z,11.00
2022-10-03T01:31:10.175Z,11.00
2022-10-03T01:34:23.256Z,10.90
2022-10-03T01:37:09.290Z,11.00
2022-10-03T01:40:05.886Z,10.90
2022-10-03T01:42:38.033Z,11.00
2022-10-03T01:45:43.254Z,11.00
2022-10-03T01:48:30.189Z,11.00
2022-10-03T01:51:08.820Z,10.90
2022-10-03T01:54:09.260Z,10.90
2022-10-03T01:56:55.364Z,10.80
2022-10-03T01:59:48.353Z,10.80
2022-10-03T02:02:26.979Z,10.80
2022-10-03T02:05:12.864Z,10.80
2022-10-03T02:07:58.931Z,10.80
2022-10-03T02:10:50.295Z,10.80
2022-10-03T02:13:40.925Z,10.70
2022-10-03T02:16:15.586Z,10.70
2022-10-03T02:18:58.133Z,10.70
2022-10-03T02:21:29.476Z,10.70
2022-10-03T02:24:19.621Z,10.70
2022-10-03T02:27:11.727Z,10.70
2022-10-03T02:30:12.265Z,10.70
2022-10-03T02:33:08.097Z,10.60
2022-10-03T02:35:46.776Z,10.60
2022-10-03T02:38:13.372Z,10.60
2022-10-03T02:40:51.598Z,10.50
2022-10-03T02:43:51.817Z,10.50
2022-10-03T02:47:01.789Z,10.50
2022-10-03T02:49:42.902Z,10.50
2022-10-03T02:52:15.373Z,10.40
2022-10-03T02:55:20.350Z,10.40
2022-10-03T02:58:26.201Z,10.30
2022-10-03T03:01:11.455Z,10.30
2022-10-03T03:03:43.585Z,10.30
2022-10-03T03:06:13.290Z,10.30
2022-10-03T03:08:51.813Z,10.30
2022-10-03T03:11:59.188Z,10.30
2022-10-03T03:15:03.412Z,10.30
2022-10-03T03:18:10.072Z,10.30
2022-10-03T03:20:53.974Z,10.20
2022-10-03T03:23:36.201Z,10.30
2022-10-03T03:26:32.809Z,10.20
2022-10-03T03:29:11.565Z,10.20
2022-10-03T03:32:03.312Z,10.20
2022-10-03T03:34:44.546Z,10.20
2022-10-03T03:37:29.854Z,10.10
2022-10-03T03:40:44.500Z,10.10
2022-10-03T03:43:37.263Z,10.10
2022-10-03T03:46:49.511Z,10.00
2022-10-03T03:49:29.401Z,10.00
2022-10-03T03:52:09.783Z,10.00
2022-10-03T03:55:08.362Z,10.00
2022-10-03T03:57:59.841Z,10.00
2022-10-03T04:00:54.525Z,9.90
2022-10-03T04:03:45.273Z,9.90
2022-10-03T04:06:40.841Z,9.90
2022-10-03T04:09:37.752Z,9.90
2022-10-03T04:12:31.259Z,9.90
2022-10-03T04:15:06.017Z,9.90
2022-10-03T04:18:03.388Z,9.80
2022-10-03T04:20:44.055Z,9.80
2022-10-03T04:23:51.951Z,9.80
2022-10-03T04:26:59.557Z,9.80
2022-10-03T04:29:55.907Z,9.80
2022-10-03T04:32:50.956Z,9.80
2022-10-03T04:35:55.951Z,9.80
2022-10-03T04:38:43.449Z,9.80
2022-10-03T04:41:29.137Z,9.80
2022-10-03T04:44:00.118Z,9.70
2022-10-03T04:46:44.149Z,9.80
2022-10-03T04:49:37.838Z,9.70
2022-10-03T04:52:19.547Z,9.70
2022-10-03T04:55:07.862Z,9.70
2022-10-03T04:57:50.121Z,9.60
2022-10-03T05:00:41.863Z,9.60
2022-10-03T05:03:34.344Z,9.50
2022-10-03T05:06:23.380Z,9.60
2022-10-03T05:09:15.629Z,9.60
2022-10-03T05:11:49.708Z,9.60
2022-10-03T05:14:33.129Z,9.60
2022-10-03T05:17:19.589Z,9.60
2022-10-03T05:20:10.479Z,9.60
2022-10-03T05:22:52.474Z,9.50
2022-10-03T05:25:29.052Z,9.50
2022-10-03T05:28:15.774Z,9.50
2022-10-03T05:30:55.359Z,9.50
2022-10-03T05:33:49.552Z,9.40
2022-10-03T05:36:24.358Z,9.40
2022-10-03T05:39:27.242Z,9.40
2022-10-03T05:42:22.123Z,9.40
2022-10-03T05:44:49.405Z,9.40
2022-10-03T05:47:51.891Z,9.40
2022-10-03T05:50:57.852Z,9.40
2022-10-03T05:53:42.505Z,9.40
2022-10-03T05:56:21.854Z,9.30
2022-10-03T05:59:32.398Z,9.30
2022-10-03T06:02:24.649Z,9.40
2022-10-03T06:05:15.369Z,9.40
2022-10-03T06:07:56.984Z,9.40
2022-10-03T06:10:51.796Z,9.50
2022-10-03T06:13:37.894Z,9.50
2022-10-03T06:16:10.183Z,9.50
2022-10-03T06:18:58.583Z,9.50
2022-10-03T06:21:25.235Z,9.50
2022-10-03T06:24:25.147Z,9.50
2022-10-03T06:27:10.455Z,9.50
2022-10-03T06:29:52.868Z,9.50
2022-10-03T06:32:47.434Z,9.60
2022-10-03T06:35:32.857Z,9.60
2022-10-03T06:38:24.612Z,9.60
2022-10-03T06:41:18.975Z,9.70
2022-10-03T06:43:57.111Z,9.60
2022-10-03T06:46:47.014Z,9.70
2022-10-03T06:49:37.073Z,9.70
2022-10-03T06:52:09.474Z,9.70
2022-10-03T06:54:52.698Z,9.70
2022-10-03T06:57:38.070Z,9.70
2022-10-03T07:00:41.405Z,9.70
2022-10-03T07:03:36.567Z,9.70
2022-10-03T07:06:18.286Z,9.80
2022-10-03T07:08:58.185Z,9.90
2022-10-03T07:12:17.855Z,9.90
2022-10-03T07:14:59.623Z,10.00
2022-10-03T07:18:11.702Z,10.10
2022-10-03T07:20:59.970Z,10.20
2022-10-03T07:23:55.465Z,10.20
2022-10-03T07:26:28.133Z,10.20
2022-10-03T07:29:21.463Z,10.20
2022-10-03T07:32:00.097Z,10.30
2022-10-03T07:34:45.341Z,10.30
2022-10-03T07:37:42.141Z,10.30
2022-10-03T07:40:28.117Z,10.30
2022-10-03T07:43:09.548Z,10.40
2022-10-03T07:45:45.775Z,10.40
2022-10-03T07:48:27.093Z,10.50
2022-10-03T07:51:02.966Z,10.60
2022-10-03T07:53:44.493Z,10.70
2022-10-03T07:56:39.648Z,10.80
2022-10-03T07:59:48.450Z,10.80
2022-10-03T08:02:21.412Z,10.90
2022-10-03T08:05:03.309Z,11.00
2022-10-03T08:07:47.811Z,11.00
2022-10-03T08:10:33.292Z,11.10
2022-10-03T08:13:13.906Z,11.10
2022-10-03T08:16:08.863Z,11.20
2022-10-03T08:19:07.200Z,11.30
2022-10-03T08:21:45.256Z,11.40
2022-10-03T08:24:49.322Z,11.40
2022-10-03T08:27:51.815Z,11.50
2022-10-03T08:30:25.490Z,11.60
2022-10-03T08:33:01.609Z,11.70
2022-10-03T08:36:08.498Z,11.70
2022-10-03T08:39:07.161Z,11.90
2022-10-03T08:42:05.873Z,12.00
2022-10-03T08:44:54.344Z,12.10
2022-10-03T08:47:56.277Z,12.20
2022-10-03T08:51:02.420Z,12.30
2022-10-03T08:53:31.909Z,12.40
2022-10-03T08:56:15.125Z,12.60
2022-10-03T08:59:17.118Z,12.60
2022-10-03T09:02:00.416Z,12.70
2022-10-03T09:04:54.851Z,12.90
2022-10-03T09:07:45.066Z,13.00
2022-10-03T09:10:31.534Z,13.10
2022-10-03T09:13:14.314Z,13.20
2022-10-03T09:16:11.889Z,13.30
2022-10-03T09:18:44.405Z,13.40
2022-10-03T09:21:37.066Z,13.60
2022-10-03T09:24:51.602Z,13.80
2022-10-03T09:27:34.430Z,14.00
2022-10-03T09:30:19.944Z,14.10
2022-10-03T09:33:08.019Z,14.20
2022-10-03T09:36:00.658Z,14.30
2022-10-03T09:39:05.001Z,14.50
2022-10-03T09:41:42.655Z,14.60
2022-10-03T09:44:09.356Z,14.80
2022-10-03T09:47:28.208Z,14.90
2022-10-03T09:50:03.693Z,15.10
2022-10-03T09:53:09.099Z,15.20
2022-10-03T09:55:40.908Z,15.30
2022-10-03T09:58:07.492Z,15.50
2022-10-03T10:01:05.071Z,15.80
2022-10-03T10:04:22.022Z,16.00
2022-10-03T10:07:16.881Z,16.20
2022-10-03T10:09:54.779Z,16.50
2022-10-03T10:12:55.017Z,16.70
2022-10-03T10:16:09.647Z,16.80
2022-10-03T10:19:14.119Z,17.00
2022-10-03T10:22:02.238Z,17.10
2022-10-03T10:24:46.595Z,17.10
2022-10-03T10:27:31.083Z,17.20
2022-10-03T10:30:12.864Z,17.30
2022-10-03T10:33:00.741Z,17.50
2022-10-03T10:35:39.351Z,17.60
2022-10-03T10:38:47.497Z,17.80
2022-10-03T10:41:39.084Z,17.80
2022-10-03T10:44:05.861Z,17.80
2022-10-03T10:46:46.927Z,17.80
2022-10-03T10:49:49.016Z,17.80
2022-10-03T10:52:34.661Z,17.90
2022-10-03T10:55:41.748Z,18.10
2022-10-03T10:58:16.817Z,18.30
2022-10-03T11:01:05.131Z,18.40
2022-10-03T11:04:14.037Z,18.50
2022-10-03T11:07:16.166Z,18.50
2022-10-03T11:09:53.400Z,18.60
2022-10-03T11:12:53.867Z,18.70
2022-10-03T11:15:26.334Z,18.70
2022-10-03T11:18:08.297Z,18.80
2022-10-03T11:20:55.418Z,18.90
2022-10-03T11:23:53.536Z,18.90
2022-10-03T11:26:32.315Z,19.20
2022-10-03T11:29:34.096Z,19.50
2022-10-03T11:32:28.187Z,19.90
2022-10-03T11:35:13.437Z,20.90
2022-10-03T11:38:00.358Z,21.20
2022-10-03T11:40:35.752Z,21.00
2022-10-03T11:43:28.292Z,20.70
2022-10-03T11:46:05.787Z,20.70
2022-10-03T11:48:47.444Z,20.80
2022-10-03T11:51:21.580Z,20.90
2022-10-03T11:54:26.402Z,21.50
2022-10-03T11:56:52.909Z,22.30
2022-10-03T11:59:54.573Z,22.20
2022-10-03T12:02:30.142Z,22.20
2022-10-03T12:05:40.097Z,22.00
2022-10-03T12:08:53.619Z,21.30
2022-10-03T12:11:29.284Z,20.70
2022-10-03T12:14:32.448Z,20.20
2022-10-03T12:17:12.301Z,19.90
2022-10-03T12:19:54.658Z,19.60
2022-10-03T12:22:33.840Z,19.60
2022-10-03T12:25:30.146Z,19.60
2022-10-03T12:28:21.531Z,19.50
2022-10-03T12:31:01.263Z,19.80
2022-10-03T12:33:32.788Z,20.20
2022-10-03T12:36:41.300Z,20.60
2022-10-03T12:39:26.653Z,20.90
2022-10-03T12:42:05.118Z,20.70
2022-10-03T12:44:37.822Z,20.80
2022-10-03T12:47:54.439Z,21.10
2022-10-03T12:50:33.613Z,21.30
2022-10-03T12:53:25.191Z,21.20
2022-10-03T12:56:04.373Z,21.20
2022-10-03T12:58:55.560Z,21.30
2022-10-03T13:01:49.970Z,21.90
2022-10-03T13:04:23.466Z,22.10
2022-10-03T13:07:28.308Z,21.80
2022-10-03T13:10:14.644Z,21.80
2022-10-03T13:13:13.406Z,22.10
2022-10-03T13:15:55.467Z,22.70
2022-10-03T13:18:40.525Z,22.90
2022-10-03T13:21:45.874Z,22.80
2022-10-03T13:24:32.132Z,22.60
2022-10-03T13:27:14.458Z,22.30
2022-10-03T13:29:48.669Z,21.70
2022-10-03T13:32:30.350Z,21.40
2022-10-03T13:35:23.184Z,21.30
2022-10-03T13:38:06.109Z,21.10
2022-10-03T13:40:37.715Z,21.30
2022-10-03T13:43:13.674Z,21.40
2022-10-03T13:45:47.096Z,21.20
2022-10-03T13:48:29.344Z,21.00
2022-10-03T13:51:02.003Z,21.10
2022-10-03T13:53:43.719Z,20.80
2022-10-03T13:56:25.083Z,20.60
